sensor_id;sensor_type;location;lat;lon;timestamp;P1;durP1;ratioP1;P2;durP2;ratioP2
27744;SDS011;61387;48.112;8.616;2023-10-13T00:01:48;7.93;;;3.50;;
27744;SDS011;61387;48.112;8.616;2023-10-13T00:04:17;8.57;;;4.00;;
27744;SDS011;61387;48.112;8.616;2023-10-13T00:06:49;6.93;;;3.40;;
27744;SDS011;61387;48.112;8.616;2023-10-13T00:09:21;8.13;;;3.73;;
27744;SDS011;61387;48.112;8.616;2023-10-13T00:11:50;7.97;;;3.73;;
27744;SDS011;61387;48.112;8.616;2023-10-13T00:14:18;10.00;;;3.83;;
27744;SDS011;61387;48.112;8.616;2023-10-13T00:16:46;11.03;;;3.90;;
27744;SDS011;61387;48.112;8.616;2023-10-13T00:19:29;7.63;;;3.53;;
27744;SDS011;61387;48.112;8.616;2023-10-13T00:22:12;11.77;;;4.20;;
27744;SDS011;61387;48.112;8.616;2023-10-13T00:24:42;8.33;;;4.30;;
27744;SDS011;61387;48.112;8.616;2023-10-13T00:27:11;8.13;;;3.60;;
27744;SDS011;61387;48.112;8.616;2023-10-13T00:30:07;7.63;;;3.60;;
27744;SDS011;61387;48.112;8.616;2023-10-13T00:32:48;7.20;;;3.80;;
27744;SDS011;61387;48.112;8.616;2023-10-13T00:35:20;7.40;;;3.47;;
27744;SDS011;61387;48.112;8.616;2023-10-13T00:38:05;7.60;;;3.50;;
27744;SDS011;61387;48.112;8.616;2023-10-13T00:40:48;8.20;;;3.77;;
27744;SDS011;61387;48.112;8.616;2023-10-13T00:43:17;7.70;;;3.73;;
27744;SDS011;61387;48.112;8.616;2023-10-13T00:45:47;8.23;;;3.97;;
27744;SDS011;61387;48.112;8.616;2023-10-13T00:48:21;8.00;;;3.60;;
27744;SDS011;61387;48.112;8.616;2023-10-13T00:50:58;7.03;;;3.70;;
27744;SDS011;61387;48.112;8.616;2023-10-13T00:53:31;6.67;;;3.97;;
27744;SDS011;61387;48.112;8.616;2023-10-13T00:56:05;8.13;;;3.60;;
27744;SDS011;61387;48.112;8.616;2023-10-13T00:58:33;7.83;;;3.97;;
27744;SDS011;61387;48.112;8.616;2023-10-13T01:00:59;8.20;;;3.87;;
27744;SDS011;61387;48.112;8.616;2023-10-13T01:03:44;8.80;;;3.80;;
27744;SDS011;61387;48.112;8.616;2023-10-13T01:06:11;6.50;;;3.70;;
27744;SDS011;61387;48.112;8.616;2023-10-13T01:08:37;9.23;;;4.27;;
27744;SDS011;61387;48.112;8.616;2023-10-13T01:11:04;8.90;;;4.00;;
27744;SDS011;61387;48.112;8.616;2023-10-13T01:13:33;9.80;;;3.97;;
27744;SDS011;61387;48.112;8.616;2023-10-13T01:16:01;7.50;;;3.80;;
27744;SDS011;61387;48.112;8.616;2023-10-13T01:18:27;8.90;;;4.47;;
27744;SDS011;61387;48.112;8.616;2023-10-13T01:20:54;9.47;;;4.40;;
27744;SDS011;61387;48.112;8.616;2023-10-13T01:23:24;6.90;;;3.73;;
27744;SDS011;61387;48.112;8.616;2023-10-13T01:25:53;10.23;;;3.70;;
27744;SDS011;61387;48.112;8.616;2023-10-13T01:28:19;7.57;;;3.90;;
27744;SDS011;61387;48.112;8.616;2023-10-13T01:30:47;6.60;;;4.00;;
27744;SDS011;61387;48.112;8.616;2023-10-13T01:33:19;8.77;;;4.17;;
27744;SDS011;61387;48.112;8.616;2023-10-13T01:35:52;12.40;;;4.50;;
27744;SDS011;61387;48.112;8.616;2023-10-13T01:38:20;7.03;;;4.00;;
27744;SDS011;61387;48.112;8.616;2023-10-13T01:40:46;10.53;;;3.77;;
27744;SDS011;61387;48.112;8.616;2023-10-13T01:43:16;9.03;;;3.67;;
27744;SDS011;61387;48.112;8.616;2023-10-13T01:45:43;8.80;;;3.70;;
27744;SDS011;61387;48.112;8.616;2023-10-13T01:48:12;6.93;;;4.43;;
27744;SDS011;61387;48.112;8.616;2023-10-13T01:50:43;7.03;;;4.00;;
27744;SDS011;61387;48.112;8.616;2023-10-13T01:53:17;9.20;;;3.83;;
27744;SDS011;61387;48.112;8.616;2023-10-13T01:55:44;6.97;;;3.90;;
27744;SDS011;61387;48.112;8.616;2023-10-13T01:58:10;8.23;;;4.10;;
27744;SDS011;61387;48.112;8.616;2023-10-13T02:00:40;6.93;;;4.23;;
27744;SDS011;61387;48.112;8.616;2023-10-13T02:03:07;9.37;;;4.00;;
27744;SDS011;61387;48.112;8.616;2023-10-13T02:05:44;7.60;;;4.20;;
27744;SDS011;61387;48.112;8.616;2023-10-13T02:08:20;9.17;;;4.23;;
27744;SDS011;61387;48.112;8.616;2023-10-13T02:10:54;10.03;;;4.20;;
27744;SDS011;61387;48.112;8.616;2023-10-13T02:13:21;8.37;;;4.20;;
27744;SDS011;61387;48.112;8.616;2023-10-13T02:15:48;9.23;;;4.17;;
27744;SDS011;61387;48.112;8.616;2023-10-13T02:18:17;7.50;;;4.30;;
27744;SDS011;61387;48.112;8.616;2023-10-13T02:20:51;9.97;;;3.80;;
27744;SDS011;61387;48.112;8.616;2023-10-13T02:23:22;11.23;;;4.30;;
27744;SDS011;61387;48.112;8.616;2023-10-13T02:25:49;6.80;;;3.70;;
27744;SDS011;61387;48.112;8.616;2023-10-13T02:28:25;10.13;;;4.13;;
27744;SDS011;61387;48.112;8.616;2023-10-13T02:30:53;6.20;;;3.80;;
27744;SDS011;61387;48.112;8.616;2023-10-13T02:33:19;8.80;;;4.17;;
27744;SDS011;61387;48.112;8.616;2023-10-13T02:35:54;8.20;;;4.17;;
27744;SDS011;61387;48.112;8.616;2023-10-13T02:38:21;5.83;;;3.90;;
27744;SDS011;61387;48.112;8.616;2023-10-13T02:40:58;7.07;;;3.87;;
27744;SDS011;61387;48.112;8.616;2023-10-13T02:43:39;10.50;;;4.57;;
27744;SDS011;61387;48.112;8.616;2023-10-13T02:46:07;6.30;;;3.53;;
27744;SDS011;61387;48.112;8.616;2023-10-13T02:48:32;8.98;;;4.30;;
27744;SDS011;61387;48.112;8.616;2023-10-13T02:51:05;10.90;;;4.30;;
27744;SDS011;61387;48.112;8.616;2023-10-13T02:53:40;8.37;;;4.80;;
27744;SDS011;61387;48.112;8.616;2023-10-13T02:56:06;9.07;;;4.17;;
27744;SDS011;61387;48.112;8.616;2023-10-13T02:58:33;12.77;;;4.47;;
27744;SDS011;61387;48.112;8.616;2023-10-13T03:01:08;10.90;;;4.40;;
27744;SDS011;61387;48.112;8.616;2023-10-13T03:03:42;12.77;;;4.90;;
27744;SDS011;61387;48.112;8.616;2023-10-13T03:06:09;9.20;;;4.30;;
27744;SDS011;61387;48.112;8.616;2023-10-13T03:08:37;10.83;;;4.33;;
27744;SDS011;61387;48.112;8.616;2023-10-13T03:11:03;9.37;;;3.90;;
27744;SDS011;61387;48.112;8.616;2023-10-13T03:13:30;8.20;;;4.23;;
27744;SDS011;61387;48.112;8.616;2023-10-13T03:15:58;9.17;;;4.40;;
27744;SDS011;61387;48.112;8.616;2023-10-13T03:18:24;9.70;;;4.13;;
27744;SDS011;61387;48.112;8.616;2023-10-13T03:20:50;6.43;;;4.00;;
27744;SDS011;61387;48.112;8.616;2023-10-13T03:23:21;9.17;;;4.57;;
27744;SDS011;61387;48.112;8.616;2023-10-13T03:25:49;7.73;;;4.20;;
27744;SDS011;61387;48.112;8.616;2023-10-13T03:28:15;8.43;;;4.53;;
27744;SDS011;61387;48.112;8.616;2023-10-13T03:30:48;8.53;;;4.27;;
27744;SDS011;61387;48.112;8.616;2023-10-13T03:33:17;10.00;;;4.10;;
27744;SDS011;61387;48.112;8.616;2023-10-13T03:35:54;9.27;;;4.53;;
27744;SDS011;61387;48.112;8.616;2023-10-13T03:38:23;12.53;;;4.43;;
27744;SDS011;61387;48.112;8.616;2023-10-13T03:40:52;8.00;;;4.30;;
27744;SDS011;61387;48.112;8.616;2023-10-13T03:43:23;9.30;;;4.67;;
27744;SDS011;61387;48.112;8.616;2023-10-13T03:45:50;8.90;;;4.30;;
27744;SDS011;61387;48.112;8.616;2023-10-13T03:48:25;11.47;;;4.57;;
27744;SDS011;61387;48.112;8.616;2023-10-13T03:51:01;9.60;;;4.50;;
27744;SDS011;61387;48.112;8.616;2023-10-13T03:53:39;8.53;;;4.60;;
27744;SDS011;61387;48.112;8.616;2023-10-13T03:56:18;9.97;;;4.50;;
27744;SDS011;61387;48.112;8.616;2023-10-13T03:59:03;10.13;;;4.80;;
27744;SDS011;61387;48.112;8.616;2023-10-13T04:01:42;7.63;;;4.07;;
27744;SDS011;61387;48.112;8.616;2023-10-13T04:04:08;9.67;;;4.00;;
27744;SDS011;61387;48.112;8.616;2023-10-13T04:06:36;7.77;;;4.43;;
27744;SDS011;61387;48.112;8.616;2023-10-13T04:09:17;8.87;;;4.03;;
27744;SDS011;61387;48.112;8.616;2023-10-13T04:11:56;9.07;;;4.90;;
27744;SDS011;61387;48.112;8.616;2023-10-13T04:14:24;10.80;;;4.77;;
27744;SDS011;61387;48.112;8.616;2023-10-13T04:17:10;11.93;;;4.57;;
27744;SDS011;61387;48.112;8.616;2023-10-13T04:19:42;27.10;;;13.23;;
27744;SDS011;61387;48.112;8.616;2023-10-13T04:22:27;25.47;;;12.50;;
27744;SDS011;61387;48.112;8.616;2023-10-13T04:25:14;15.07;;;7.27;;
27744;SDS011;61387;48.112;8.616;2023-10-13T04:28:02;12.77;;;6.13;;
27744;SDS011;61387;48.112;8.616;2023-10-13T04:30:52;14.10;;;6.93;;
27744;SDS011;61387;48.112;8.616;2023-10-13T04:33:33;12.27;;;6.43;;
27744;SDS011;61387;48.112;8.616;2023-10-13T04:36:02;12.87;;;5.00;;
27744;SDS011;61387;48.112;8.616;2023-10-13T04:38:38;8.53;;;4.27;;
27744;SDS011;61387;48.112;8.616;2023-10-13T04:41:21;10.50;;;4.30;;
27744;SDS011;61387;48.112;8.616;2023-10-13T04:43:50;8.07;;;4.47;;
27744;SDS011;61387;48.112;8.616;2023-10-13T04:46:29;6.20;;;3.90;;
27744;SDS011;61387;48.112;8.616;2023-10-13T04:49:19;10.83;;;4.63;;
27744;SDS011;61387;48.112;8.616;2023-10-13T04:52:02;10.10;;;5.40;;
27744;SDS011;61387;48.112;8.616;2023-10-13T04:57:17;16.50;;;8.23;;
27744;SDS011;61387;48.112;8.616;2023-10-13T04:59:59;14.10;;;6.93;;
27744;SDS011;61387;48.112;8.616;2023-10-13T05:02:40;17.43;;;10.13;;
27744;SDS011;61387;48.112;8.616;2023-10-13T05:07:39;10.53;;;5.20;;
27744;SDS011;61387;48.112;8.616;2023-10-13T05:10:26;10.03;;;4.77;;
27744;SDS011;61387;48.112;8.616;2023-10-13T05:13:11;11.07;;;4.47;;
27744;SDS011;61387;48.112;8.616;2023-10-13T05:15:55;10.20;;;4.70;;
27744;SDS011;61387;48.112;8.616;2023-10-13T05:18:39;11.40;;;4.67;;
27744;SDS011;61387;48.112;8.616;2023-10-13T05:21:23;10.03;;;4.83;;
27744;SDS011;61387;48.112;8.616;2023-10-13T05:24:08;8.87;;;4.37;;
27744;SDS011;61387;48.112;8.616;2023-10-13T05:26:52;10.90;;;4.63;;
27744;SDS011;61387;48.112;8.616;2023-10-13T05:29:44;12.20;;;4.50;;
27744;SDS011;61387;48.112;8.616;2023-10-13T05:32:30;8.87;;;4.57;;
27744;SDS011;61387;48.112;8.616;2023-10-13T05:35:15;6.97;;;4.03;;
27744;SDS011;61387;48.112;8.616;2023-10-13T05:37:59;8.17;;;4.47;;
27744;SDS011;61387;48.112;8.616;2023-10-13T05:40:51;11.17;;;4.63;;
27744;SDS011;61387;48.112;8.616;2023-10-13T05:43:36;13.13;;;6.23;;
27744;SDS011;61387;48.112;8.616;2023-10-13T05:46:20;13.63;;;6.53;;
27744;SDS011;61387;48.112;8.616;2023-10-13T05:48:53;13.60;;;6.40;;
27744;SDS011;61387;48.112;8.616;2023-10-13T05:51:28;17.53;;;6.63;;
27744;SDS011;61387;48.112;8.616;2023-10-13T05:54:01;17.07;;;7.60;;
27744;SDS011;61387;48.112;8.616;2023-10-13T05:56:40;14.63;;;6.50;;
27744;SDS011;61387;48.112;8.616;2023-10-13T05:59:34;15.63;;;6.20;;
27744;SDS011;61387;48.112;8.616;2023-10-13T06:03:27;14.63;;;5.83;;
27744;SDS011;61387;48.112;8.616;2023-10-13T06:06:11;10.80;;;5.27;;
27744;SDS011;61387;48.112;8.616;2023-10-13T06:08:55;9.90;;;4.70;;
27744;SDS011;61387;48.112;8.616;2023-10-13T06:11:39;13.87;;;4.97;;
27744;SDS011;61387;48.112;8.616;2023-10-13T06:14:24;13.80;;;5.40;;
27744;SDS011;61387;48.112;8.616;2023-10-13T06:17:08;12.20;;;5.47;;
27744;SDS011;61387;48.112;8.616;2023-10-13T06:19:52;13.73;;;4.67;;
27744;SDS011;61387;48.112;8.616;2023-10-13T06:22:36;13.70;;;5.00;;
27744;SDS011;61387;48.112;8.616;2023-10-13T06:25:20;12.13;;;4.47;;
27744;SDS011;61387;48.112;8.616;2023-10-13T06:28:04;12.10;;;4.80;;
27744;SDS011;61387;48.112;8.616;2023-10-13T06:30:58;10.60;;;4.47;;
27744;SDS011;61387;48.112;8.616;2023-10-13T06:33:26;11.87;;;4.50;;
27744;SDS011;61387;48.112;8.616;2023-10-13T06:35:55;14.73;;;4.90;;
27744;SDS011;61387;48.112;8.616;2023-10-13T06:38:22;11.77;;;4.43;;
27744;SDS011;61387;48.112;8.616;2023-10-13T06:40:48;8.97;;;4.00;;
27744;SDS011;61387;48.112;8.616;2023-10-13T06:43:15;13.97;;;4.30;;
27744;SDS011;61387;48.112;8.616;2023-10-13T06:45:45;9.57;;;3.80;;
27744;SDS011;61387;48.112;8.616;2023-10-13T06:48:21;11.27;;;4.27;;
27744;SDS011;61387;48.112;8.616;2023-10-13T06:50:49;12.37;;;4.17;;
27744;SDS011;61387;48.112;8.616;2023-10-13T06:53:17;9.90;;;4.03;;
27744;SDS011;61387;48.112;8.616;2023-10-13T06:55:43;8.73;;;4.10;;
27744;SDS011;61387;48.112;8.616;2023-10-13T06:58:12;9.93;;;4.00;;
27744;SDS011;61387;48.112;8.616;2023-10-13T07:00:39;12.70;;;4.00;;
27744;SDS011;61387;48.112;8.616;2023-10-13T07:03:05;9.00;;;4.03;;
27744;SDS011;61387;48.112;8.616;2023-10-13T07:05:35;11.30;;;4.13;;
27744;SDS011;61387;48.112;8.616;2023-10-13T07:08:03;8.90;;;3.97;;
27744;SDS011;61387;48.112;8.616;2023-10-13T07:10:30;13.40;;;4.53;;
27744;SDS011;61387;48.112;8.616;2023-10-13T07:13:00;10.80;;;3.67;;
27744;SDS011;61387;48.112;8.616;2023-10-13T07:15:26;10.50;;;3.77;;
27744;SDS011;61387;48.112;8.616;2023-10-13T07:17:52;12.73;;;3.87;;
27744;SDS011;61387;48.112;8.616;2023-10-13T07:20:24;8.63;;;3.23;;
27744;SDS011;61387;48.112;8.616;2023-10-13T07:22:50;10.77;;;3.80;;
27744;SDS011;61387;48.112;8.616;2023-10-13T07:25:28;9.30;;;3.07;;
27744;SDS011;61387;48.112;8.616;2023-10-13T07:27:58;12.57;;;3.43;;
27744;SDS011;61387;48.112;8.616;2023-10-13T07:30:25;9.63;;;3.40;;
27744;SDS011;61387;48.112;8.616;2023-10-13T07:32:55;8.97;;;3.77;;
27744;SDS011;61387;48.112;8.616;2023-10-13T07:35:25;9.30;;;3.00;;
27744;SDS011;61387;48.112;8.616;2023-10-13T07:37:51;10.17;;;3.40;;
27744;SDS011;61387;48.112;8.616;2023-10-13T07:40:18;7.90;;;3.00;;
27744;SDS011;61387;48.112;8.616;2023-10-13T07:43:07;9.40;;;3.30;;
27744;SDS011;61387;48.112;8.616;2023-10-13T07:45:35;7.77;;;3.30;;
27744;SDS011;61387;48.112;8.616;2023-10-13T07:48:02;7.70;;;3.47;;
27744;SDS011;61387;48.112;8.616;2023-10-13T07:50:43;10.33;;;3.77;;
27744;SDS011;61387;48.112;8.616;2023-10-13T07:53:10;8.17;;;3.50;;
27744;SDS011;61387;48.112;8.616;2023-10-13T07:55:49;9.17;;;3.13;;
27744;SDS011;61387;48.112;8.616;2023-10-13T07:58:22;7.03;;;3.20;;
27744;SDS011;61387;48.112;8.616;2023-10-13T08:00:51;10.47;;;3.63;;
27744;SDS011;61387;48.112;8.616;2023-10-13T08:03:31;12.37;;;4.20;;
27744;SDS011;61387;48.112;8.616;2023-10-13T08:06:00;8.77;;;3.80;;
27744;SDS011;61387;48.112;8.616;2023-10-13T08:08:44;8.73;;;3.53;;
27744;SDS011;61387;48.112;8.616;2023-10-13T08:11:19;6.57;;;2.97;;
27744;SDS011;61387;48.112;8.616;2023-10-13T08:13:57;8.77;;;3.50;;
27744;SDS011;61387;48.112;8.616;2023-10-13T08:16:46;9.60;;;3.73;;
27744;SDS011;61387;48.112;8.616;2023-10-13T08:19:25;9.73;;;3.20;;
27744;SDS011;61387;48.112;8.616;2023-10-13T08:21:53;9.70;;;3.93;;
27744;SDS011;61387;48.112;8.616;2023-10-13T08:24:25;7.47;;;3.40;;
27744;SDS011;61387;48.112;8.616;2023-10-13T08:27:03;6.30;;;3.47;;
27744;SDS011;61387;48.112;8.616;2023-10-13T08:29:48;9.20;;;3.17;;
27744;SDS011;61387;48.112;8.616;2023-10-13T08:32:16;10.33;;;3.33;;
27744;SDS011;61387;48.112;8.616;2023-10-13T08:35:01;9.07;;;3.50;;
27744;SDS011;61387;48.112;8.616;2023-10-13T08:37:30;7.50;;;3.83;;
27744;SDS011;61387;48.112;8.616;2023-10-13T08:40:12;8.67;;;3.43;;
27744;SDS011;61387;48.112;8.616;2023-10-13T08:42:57;8.70;;;2.90;;
27744;SDS011;61387;48.112;8.616;2023-10-13T08:45:27;9.80;;;3.43;;
27744;SDS011;61387;48.112;8.616;2023-10-13T08:47:57;10.57;;;3.23;;
27744;SDS011;61387;48.112;8.616;2023-10-13T08:50:37;7.20;;;3.25;;
27744;SDS011;61387;48.112;8.616;2023-10-13T08:53:22;8.60;;;3.30;;
27744;SDS011;61387;48.112;8.616;2023-10-13T08:56:12;9.73;;;3.20;;
27744;SDS011;61387;48.112;8.616;2023-10-13T08:58:38;8.63;;;3.53;;
27744;SDS011;61387;48.112;8.616;2023-10-13T09:01:21;11.00;;;3.60;;
27744;SDS011;61387;48.112;8.616;2023-10-13T09:04:12;8.20;;;3.22;;
27744;SDS011;61387;48.112;8.616;2023-10-13T09:07:06;9.88;;;3.62;;
27744;SDS011;61387;48.112;8.616;2023-10-13T09:12:21;8.73;;;2.67;;
27744;SDS011;61387;48.112;8.616;2023-10-13T09:14:58;6.32;;;3.05;;
27744;SDS011;61387;48.112;8.616;2023-10-13T09:17:31;7.03;;;2.92;;
27744;SDS011;61387;48.112;8.616;2023-10-13T09:20:06;7.45;;;3.12;;
27744;SDS011;61387;48.112;8.616;2023-10-13T09:22:51;8.38;;;2.65;;
27744;SDS011;61387;48.112;8.616;2023-10-13T09:25:30;6.57;;;2.97;;
27744;SDS011;61387;48.112;8.616;2023-10-13T09:28:12;9.55;;;3.00;;
27744;SDS011;61387;48.112;8.616;2023-10-13T09:30:47;7.97;;;2.90;;
27744;SDS011;61387;48.112;8.616;2023-10-13T09:33:21;10.95;;;3.30;;
27744;SDS011;61387;48.112;8.616;2023-10-13T09:35:54;8.00;;;3.20;;
27744;SDS011;61387;48.112;8.616;2023-10-13T09:38:20;6.50;;;2.77;;
27744;SDS011;61387;48.112;8.616;2023-10-13T09:40:48;8.40;;;2.67;;
27744;SDS011;61387;48.112;8.616;2023-10-13T09:43:23;6.70;;;2.85;;
27744;SDS011;61387;48.112;8.616;2023-10-13T09:45:51;6.22;;;2.80;;
27744;SDS011;61387;48.112;8.616;2023-10-13T09:48:39;10.18;;;2.85;;
27744;SDS011;61387;48.112;8.616;2023-10-13T09:51:18;8.68;;;3.00;;
27744;SDS011;61387;48.112;8.616;2023-10-13T09:54:10;10.50;;;3.35;;
27744;SDS011;61387;48.112;8.616;2023-10-13T09:56:58;7.93;;;3.05;;
27744;SDS011;61387;48.112;8.616;2023-10-13T09:59:37;6.53;;;2.80;;
27744;SDS011;61387;48.112;8.616;2023-10-13T10:02:17;8.48;;;2.85;;
27744;SDS011;61387;48.112;8.616;2023-10-13T10:04:51;5.82;;;2.53;;
27744;SDS011;61387;48.112;8.616;2023-10-13T10:07:24;13.38;;;3.72;;
27744;SDS011;61387;48.112;8.616;2023-10-13T10:10:00;8.68;;;2.95;;
27744;SDS011;61387;48.112;8.616;2023-10-13T10:15:09;9.05;;;3.35;;
27744;SDS011;61387;48.112;8.616;2023-10-13T10:18:06;10.00;;;2.70;;
27744;SDS011;61387;48.112;8.616;2023-10-13T10:20:47;6.05;;;3.03;;
27744;SDS011;61387;48.112;8.616;2023-10-13T10:23:26;12.32;;;3.45;;
27744;SDS011;61387;48.112;8.616;2023-10-13T10:26:14;9.88;;;2.92;;
27744;SDS011;61387;48.112;8.616;2023-10-13T10:28:45;10.43;;;3.45;;
27744;SDS011;61387;48.112;8.616;2023-10-13T10:31:11;7.43;;;2.90;;
27744;SDS011;61387;48.112;8.616;2023-10-13T10:33:38;9.10;;;3.47;;
27744;SDS011;61387;48.112;8.616;2023-10-13T10:36:04;9.10;;;3.00;;
27744;SDS011;61387;48.112;8.616;2023-10-13T10:38:30;10.07;;;3.30;;
27744;SDS011;61387;48.112;8.616;2023-10-13T10:41:05;7.72;;;3.05;;
27744;SDS011;61387;48.112;8.616;2023-10-13T10:46:14;8.57;;;3.30;;
27744;SDS011;61387;48.112;8.616;2023-10-13T10:48:42;8.18;;;3.28;;
27744;SDS011;61387;48.112;8.616;2023-10-13T10:51:12;8.00;;;3.62;;
27744;SDS011;61387;48.112;8.616;2023-10-13T10:53:53;7.75;;;2.92;;
27744;SDS011;61387;48.112;8.616;2023-10-13T10:56:25;8.68;;;3.25;;
27744;SDS011;61387;48.112;8.616;2023-10-13T10:58:58;8.82;;;3.20;;
27744;SDS011;61387;48.112;8.616;2023-10-13T11:01:26;6.95;;;2.92;;
27744;SDS011;61387;48.112;8.616;2023-10-13T11:04:04;8.60;;;3.50;;
27744;SDS011;61387;48.112;8.616;2023-10-13T11:06:36;10.45;;;3.83;;
27744;SDS011;61387;48.112;8.616;2023-10-13T11:09:10;7.10;;;3.45;;
27744;SDS011;61387;48.112;8.616;2023-10-13T11:14:45;8.77;;;3.33;;
27744;SDS011;61387;48.112;8.616;2023-10-13T11:17:19;10.77;;;3.47;;
27744;SDS011;61387;48.112;8.616;2023-10-13T11:20:11;7.75;;;3.12;;
27744;SDS011;61387;48.112;8.616;2023-10-13T11:22:48;10.05;;;3.33;;
27744;SDS011;61387;48.112;8.616;2023-10-13T11:25:22;8.57;;;3.20;;
27744;SDS011;61387;48.112;8.616;2023-10-13T11:27:55;8.60;;;3.30;;
27744;SDS011;61387;48.112;8.616;2023-10-13T11:30:23;7.72;;;3.15;;
27744;SDS011;61387;48.112;8.616;2023-10-13T11:33:09;7.65;;;3.58;;
27744;SDS011;61387;48.112;8.616;2023-10-13T11:35:36;7.65;;;3.22;;
27744;SDS011;61387;48.112;8.616;2023-10-13T11:38:34;10.27;;;3.78;;
27744;SDS011;61387;48.112;8.616;2023-10-13T11:41:05;6.85;;;3.35;;
27744;SDS011;61387;48.112;8.616;2023-10-13T11:43:31;6.97;;;3.03;;
27744;SDS011;61387;48.112;8.616;2023-10-13T11:46:01;7.97;;;3.53;;
27744;SDS011;61387;48.112;8.616;2023-10-13T11:48:33;8.60;;;3.58;;
27744;SDS011;61387;48.112;8.616;2023-10-13T11:51:01;8.40;;;3.30;;
27744;SDS011;61387;48.112;8.616;2023-10-13T11:53:36;6.57;;;3.60;;
27744;SDS011;61387;48.112;8.616;2023-10-13T11:56:03;9.27;;;3.58;;
27744;SDS011;61387;48.112;8.616;2023-10-13T11:58:34;8.00;;;3.60;;
27744;SDS011;61387;48.112;8.616;2023-10-13T12:01:01;7.70;;;3.37;;
27744;SDS011;61387;48.112;8.616;2023-10-13T12:03:46;10.63;;;3.40;;
27744;SDS011;61387;48.112;8.616;2023-10-13T12:06:31;8.77;;;3.58;;
27744;SDS011;61387;48.112;8.616;2023-10-13T12:09:12;8.32;;;3.20;;
27744;SDS011;61387;48.112;8.616;2023-10-13T12:11:40;8.32;;;3.62;;
27744;SDS011;61387;48.112;8.616;2023-10-13T12:14:10;8.38;;;3.60;;
27744;SDS011;61387;48.112;8.616;2023-10-13T12:16:56;6.22;;;3.25;;
27744;SDS011;61387;48.112;8.616;2023-10-13T12:19:28;7.43;;;3.08;;
27744;SDS011;61387;48.112;8.616;2023-10-13T12:21:55;7.83;;;3.50;;
27744;SDS011;61387;48.112;8.616;2023-10-13T12:24:22;7.00;;;3.15;;
27744;SDS011;61387;48.112;8.616;2023-10-13T12:27:00;10.32;;;3.40;;
27744;SDS011;61387;48.112;8.616;2023-10-13T12:29:50;10.63;;;4.10;;
27744;SDS011;61387;48.112;8.616;2023-10-13T12:32:17;6.72;;;3.53;;
27744;SDS011;61387;48.112;8.616;2023-10-13T12:34:56;11.57;;;3.28;;
27744;SDS011;61387;48.112;8.616;2023-10-13T12:37:22;9.87;;;3.00;;
27744;SDS011;61387;48.112;8.616;2023-10-13T12:40:12;7.00;;;3.05;;
27744;SDS011;61387;48.112;8.616;2023-10-13T12:42:57;6.70;;;3.30;;
27744;SDS011;61387;48.112;8.616;2023-10-13T12:45:42;9.15;;;3.65;;
27744;SDS011;61387;48.112;8.616;2023-10-13T12:48:27;8.18;;;3.12;;
27744;SDS011;61387;48.112;8.616;2023-10-13T12:51:12;10.77;;;3.67;;
27744;SDS011;61387;48.112;8.616;2023-10-13T12:57:00;8.02;;;3.33;;
27744;SDS011;61387;48.112;8.616;2023-10-13T12:59:26;8.05;;;3.30;;
27744;SDS011;61387;48.112;8.616;2023-10-13T13:01:58;7.12;;;3.20;;
27744;SDS011;61387;48.112;8.616;2023-10-13T13:04:24;11.82;;;4.07;;
27744;SDS011;61387;48.112;8.616;2023-10-13T13:06:56;9.82;;;3.28;;
27744;SDS011;61387;48.112;8.616;2023-10-13T13:09:22;6.33;;;3.03;;
27744;SDS011;61387;48.112;8.616;2023-10-13T13:11:52;6.72;;;2.83;;
27744;SDS011;61387;48.112;8.616;2023-10-13T13:14:22;6.20;;;3.03;;
27744;SDS011;61387;48.112;8.616;2023-10-13T13:16:53;6.15;;;2.95;;
27744;SDS011;61387;48.112;8.616;2023-10-13T13:19:19;9.83;;;3.53;;
27744;SDS011;61387;48.112;8.616;2023-10-13T13:21:50;7.90;;;3.33;;
27744;SDS011;61387;48.112;8.616;2023-10-13T13:24:16;9.90;;;3.23;;
27744;SDS011;61387;48.112;8.616;2023-10-13T13:26:42;7.87;;;3.30;;
27744;SDS011;61387;48.112;8.616;2023-10-13T13:29:08;9.20;;;3.63;;
27744;SDS011;61387;48.112;8.616;2023-10-13T13:31:36;9.20;;;3.20;;
27744;SDS011;61387;48.112;8.616;2023-10-13T13:34:11;5.15;;;3.22;;
27744;SDS011;61387;48.112;8.616;2023-10-13T13:36:40;6.47;;;3.42;;
27744;SDS011;61387;48.112;8.616;2023-10-13T13:39:10;6.72;;;3.15;;
27744;SDS011;61387;48.112;8.616;2023-10-13T13:41:36;6.90;;;3.25;;
27744;SDS011;61387;48.112;8.616;2023-10-13T13:44:03;9.15;;;3.60;;
27744;SDS011;61387;48.112;8.616;2023-10-13T13:46:48;9.52;;;3.22;;
27744;SDS011;61387;48.112;8.616;2023-10-13T13:49:17;11.70;;;3.67;;
27744;SDS011;61387;48.112;8.616;2023-10-13T13:51:53;12.50;;;3.80;;
27744;SDS011;61387;48.112;8.616;2023-10-13T13:54:19;11.07;;;3.78;;
27744;SDS011;61387;48.112;8.616;2023-10-13T13:56:46;9.70;;;3.67;;
27744;SDS011;61387;48.112;8.616;2023-10-13T13:59:14;7.32;;;3.53;;
27744;SDS011;61387;48.112;8.616;2023-10-13T14:01:44;7.37;;;3.35;;
27744;SDS011;61387;48.112;8.616;2023-10-13T14:04:10;8.48;;;3.50;;
27744;SDS011;61387;48.112;8.616;2023-10-13T14:06:35;9.93;;;3.78;;
27744;SDS011;61387;48.112;8.616;2023-10-13T14:09:02;7.75;;;3.20;;
27744;SDS011;61387;48.112;8.616;2023-10-13T14:11:38;8.57;;;3.80;;
27744;SDS011;61387;48.112;8.616;2023-10-13T14:14:22;9.27;;;3.63;;
27744;SDS011;61387;48.112;8.616;2023-10-13T14:16:51;7.87;;;3.47;;
27744;SDS011;61387;48.112;8.616;2023-10-13T14:19:17;10.23;;;3.65;;
27744;SDS011;61387;48.112;8.616;2023-10-13T14:22:05;6.37;;;3.62;;
27744;SDS011;61387;48.112;8.616;2023-10-13T14:24:36;6.60;;;3.58;;
27744;SDS011;61387;48.112;8.616;2023-10-13T14:27:08;10.35;;;3.97;;
27744;SDS011;61387;48.112;8.616;2023-10-13T14:29:40;9.02;;;3.42;;
27744;SDS011;61387;48.112;8.616;2023-10-13T14:32:10;9.75;;;3.45;;
27744;SDS011;61387;48.112;8.616;2023-10-13T14:34:45;9.93;;;3.55;;
27744;SDS011;61387;48.112;8.616;2023-10-13T14:37:13;9.35;;;3.53;;
27744;SDS011;61387;48.112;8.616;2023-10-13T14:39:46;7.20;;;3.33;;
27744;SDS011;61387;48.112;8.616;2023-10-13T14:42:12;8.85;;;3.50;;
27744;SDS011;61387;48.112;8.616;2023-10-13T14:44:37;7.80;;;3.17;;
27744;SDS011;61387;48.112;8.616;2023-10-13T14:47:03;8.30;;;3.20;;
27744;SDS011;61387;48.112;8.616;2023-10-13T14:49:33;10.55;;;3.42;;
27744;SDS011;61387;48.112;8.616;2023-10-13T14:52:00;7.40;;;3.55;;
27744;SDS011;61387;48.112;8.616;2023-10-13T14:54:26;8.23;;;3.40;;
27744;SDS011;61387;48.112;8.616;2023-10-13T14:57:07;10.55;;;3.37;;
27744;SDS011;61387;48.112;8.616;2023-10-13T14:59:51;10.48;;;3.12;;
27744;SDS011;61387;48.112;8.616;2023-10-13T15:02:17;8.88;;;3.47;;
27744;SDS011;61387;48.112;8.616;2023-10-13T15:04:43;8.63;;;3.25;;
27744;SDS011;61387;48.112;8.616;2023-10-13T15:07:08;7.97;;;3.45;;
27744;SDS011;61387;48.112;8.616;2023-10-13T15:09:34;6.97;;;3.20;;
27744;SDS011;61387;48.112;8.616;2023-10-13T15:11:59;8.07;;;3.33;;
27744;SDS011;61387;48.112;8.616;2023-10-13T15:14:30;8.35;;;3.70;;
27744;SDS011;61387;48.112;8.616;2023-10-13T15:16:58;8.40;;;3.33;;
27744;SDS011;61387;48.112;8.616;2023-10-13T15:19:25;8.90;;;3.20;;
27744;SDS011;61387;48.112;8.616;2023-10-13T15:21:54;10.55;;;3.42;;
27744;SDS011;61387;48.112;8.616;2023-10-13T15:24:20;8.00;;;3.17;;
27744;SDS011;61387;48.112;8.616;2023-10-13T15:26:49;7.55;;;3.40;;
27744;SDS011;61387;48.112;8.616;2023-10-13T15:29:18;8.18;;;3.30;;
27744;SDS011;61387;48.112;8.616;2023-10-13T15:31:50;7.00;;;2.90;;
27744;SDS011;61387;48.112;8.616;2023-10-13T15:34:30;7.18;;;3.10;;
27744;SDS011;61387;48.112;8.616;2023-10-13T15:36:56;9.32;;;3.00;;
27744;SDS011;61387;48.112;8.616;2023-10-13T15:39:24;7.32;;;3.40;;
27744;SDS011;61387;48.112;8.616;2023-10-13T15:41:53;7.95;;;3.33;;
27744;SDS011;61387;48.112;8.616;2023-10-13T15:44:20;8.10;;;3.08;;